Jupiter, FL (33458)

1:07 PM EST on January 31, 2015 (GMT -0500)
JUPITER RIVER | Change Station
CLOSE
Current Station
Personal Weather Station
Location: Jupiter, FL
Elevation: 33 ft
Nearby Weather Stations
Active Advisory: Coastal Hazard Statement

Elev 33 ft 26.93 °N, 80.11 °W | Updated 8 seconds ago

Mostly Cloudy
Mostly Cloudy
73.2 °F
Feels Like 77 °F
N
7.0
Wind Variable Wind from ESE
Gusts 8.0 mph

Today
High -- | Low -- °F
--% Chance of Precip.
Yesterday
High -- | Low -- °F
Precip. -- in
7:06 AM 6:01 PM
Waxing Gibbous, 91% visible
Pressure 30.22 in
Visibility 10.0 miles
Clouds Scattered Clouds 4600 ft
Mostly Cloudy 25000 ft
Heat Index 77 °F
Dew Point 54 °F
Humidity 50%
Rainfall 0.00 in
Snow Depth Not available.
UV 4 out of 12
Pollen 8.30 out of 12
Air Quality Not available.
Flu Activity Not available.
METAR KPBI 311753Z 07011KT 10SM SCT046 BKN250 22/09 A3023 RMK AO2 SLP234 T02220094 10233 20117 58000

More Conditions Fewer Conditions

Pressure 30.22 in
Visibility 10.0 miles
Clouds Scattered Clouds 4600 ft
Mostly Cloudy 25000 ft
Heat Index 77 °F
Dew Point 54 °F
Humidity 50%
Rainfall 0.00 in
Snow Depth Not available.
UV 4 out of 12
Pollen 8.30 out of 12
Air Quality Not available.
Flu Activity Not available.
METAR KPBI 311753Z 07011KT 10SM SCT046 BKN250 22/09 A3023 RMK AO2 SLP234 T02220094 10233 20117 58000

More Conditions Fewer Conditions

10-Day Weather Forecast

Almanac

Astronomy

Jan. 31, 2015 Rise Set
Actual Time
Civil Twilight
Nautical Twilight
Astronomical Twilight
Moon
Length of Visible Light
Length of Day
Tomorrow will be .
, % of the Moon is Illuminated

Today's Extremes

State Highs State Lows

Community

WunderPhotos

Upload Photos

1,792,142 photos uploaded!

WunderBlogs® & News

Nearby

Air Quality

  Air Quality AQ Index Pollutant
Not available.

Snow Depth

Station Depth Elevation

Earthquake Activity

City Distance Mag. Time & Date
Minimum magnitude displayed is 2.5.

Coastal Water Temperatures

Place Temperature

Nearby Weather Stations